Time;durP1;ratioP1;P1;durP2;ratioP2;P2;SDS_P1;SDS_P2;PMS_P1;PMS_P2;Temp;Humidity;BMP_temperature;BMP_pressure;BME280_temperature;BME280_humidity;BME280_pressure;Samples;Min_cycle;Max_cycle;Signal;HPM_P1;HPM_P2
2022/02/27 00:01:48;;;;;;;7.88;2.38;;;12.00;56.10;;;;;;4865333;29;20114;-72
2022/02/27 00:04:14;;;;;;;7.93;3.08;;;12.00;56.00;;;;;;4864616;29;20057;-72
2022/02/27 00:06:40;;;;;;;10.95;3.20;;;12.00;56.20;;;;;;4865055;29;20134;-72
2022/02/27 00:09:06;;;;;;;8.23;3.28;;;11.90;56.30;;;;;;4865049;29;20509;-72
2022/02/27 00:11:31;;;;;;;9.60;3.47;;;11.90;56.20;;;;;;4865001;29;20049;-72
2022/02/27 00:13:57;;;;;;;11.35;3.20;;;11.90;56.40;;;;;;4864077;29;20049;-72
2022/02/27 00:16:23;;;;;;;8.98;3.35;;;11.90;56.20;;;;;;4864862;29;20045;-72
2022/02/27 00:18:48;;;;;;;13.82;3.88;;;11.90;56.20;;;;;;4864369;29;20045;-71
2022/02/27 00:21:14;;;;;;;9.45;3.40;;;11.90;56.20;;;;;;4864503;29;20050;-72
2022/02/27 00:23:40;;;;;;;6.20;2.70;;;11.90;55.90;;;;;;4864810;29;20077;-72
2022/02/27 00:26:05;;;;;;;6.63;2.58;;;11.90;56.10;;;;;;4864961;29;20367;-71
2022/02/27 00:28:31;;;;;;;10.55;2.58;;;11.90;55.90;;;;;;4865007;29;20128;-72
2022/02/27 00:30:57;;;;;;;11.02;2.95;;;11.90;55.80;;;;;;4864631;29;20054;-71
2022/02/27 00:33:22;;;;;;;7.10;3.00;;;11.90;55.50;;;;;;4864865;29;20141;-71
2022/02/27 00:35:48;;;;;;;8.98;3.00;;;11.90;55.70;;;;;;4864536;29;20053;-72
2022/02/27 00:38:14;;;;;;;7.35;2.75;;;11.90;55.80;;;;;;4864450;29;20140;-72
2022/02/27 00:40:40;;;;;;;8.70;2.90;;;11.80;55.40;;;;;;4864734;29;20101;-72
2022/02/27 00:43:06;;;;;;;7.75;2.45;;;11.90;55.70;;;;;;4864677;29;20368;-72
2022/02/27 00:45:32;;;;;;;9.15;2.80;;;11.90;55.70;;;;;;4864326;29;20125;-71
2022/02/27 00:47:57;;;;;;;9.27;2.53;;;11.80;55.50;;;;;;4864375;29;20452;-72
2022/02/27 00:50:23;;;;;;;8.27;2.42;;;11.80;55.50;;;;;;4864020;29;20357;-71
2022/02/27 00:52:49;;;;;;;6.65;2.63;;;11.80;55.60;;;;;;4863332;29;20063;-72
2022/02/27 00:55:14;;;;;;;6.72;2.67;;;11.70;55.20;;;;;;4864349;29;20444;-72
2022/02/27 00:57:40;;;;;;;12.48;2.90;;;11.70;55.30;;;;;;4864195;29;20064;-72
2022/02/27 01:00:07;;;;;;;9.45;2.88;;;11.70;55.50;;;;;;4863868;29;20528;-72
2022/02/27 01:02:33;;;;;;;9.73;3.10;;;11.60;55.70;;;;;;4863364;29;20136;-72
2022/02/27 01:04:59;;;;;;;9.75;2.63;;;11.70;55.70;;;;;;4863426;29;20095;-72
2022/02/27 01:07:25;;;;;;;8.55;2.97;;;11.60;55.50;;;;;;4864167;29;20061;-72
2022/02/27 01:09:50;;;;;;;7.00;2.50;;;11.60;55.40;;;;;;4863974;29;20053;-71
2022/02/27 01:12:16;;;;;;;6.20;2.30;;;11.60;55.30;;;;;;4863990;29;20132;-72
2022/02/27 01:14:42;;;;;;;6.95;2.42;;;11.60;55.60;;;;;;4863856;29;20072;-71
2022/02/27 01:17:08;;;;;;;13.48;2.70;;;11.60;55.70;;;;;;4863940;29;20515;-72
2022/02/27 01:19:34;;;;;;;11.57;2.58;;;11.60;55.50;;;;;;4863460;29;20455;-71
2022/02/27 01:22:00;;;;;;;10.27;2.83;;;11.70;55.40;;;;;;4863441;29;20034;-72
2022/02/27 01:24:26;;;;;;;8.60;2.97;;;11.70;55.50;;;;;;4863680;29;20056;-72
2022/02/27 01:26:52;;;;;;;7.72;2.45;;;11.60;55.50;;;;;;4863318;29;20054;-72
2022/02/27 01:29:17;;;;;;;6.85;2.63;;;11.60;55.40;;;;;;4863854;29;20184;-72
2022/02/27 01:31:43;;;;;;;9.13;2.60;;;11.70;55.40;;;;;;4863365;29;20049;-71
2022/02/27 01:34:09;;;;;;;6.88;2.50;;;11.70;55.30;;;;;;4863508;29;20114;-72
2022/02/27 01:36:35;;;;;;;6.28;2.50;;;11.70;55.50;;;;;;4863466;29;20045;-72
2022/02/27 01:39:00;;;;;;;6.63;1.95;;;11.70;55.40;;;;;;4863373;29;20057;-71
2022/02/27 01:41:27;;;;;;;8.63;2.67;;;11.60;55.30;;;;;;4863757;29;20080;-72
2022/02/27 01:43:53;;;;;;;8.07;2.22;;;11.60;55.20;;;;;;4863502;29;20387;-71
2022/02/27 01:46:18;;;;;;;7.70;2.47;;;11.50;55.10;;;;;;4863478;29;20355;-71
2022/02/27 01:48:44;;;;;;;7.28;2.28;;;11.40;55.30;;;;;;4863159;29;20049;-72
2022/02/27 01:51:11;;;;;;;10.73;2.13;;;11.40;55.90;;;;;;4863927;29;20045;-72
2022/02/27 01:53:37;;;;;;;7.50;2.00;;;11.40;55.90;;;;;;4862295;29;20128;-71
2022/02/27 01:56:03;;;;;;;11.10;2.55;;;11.40;55.90;;;;;;4864082;29;20170;-72
2022/02/27 01:58:30;;;;;;;9.90;2.60;;;11.30;55.70;;;;;;4863122;29;20145;-72
2022/02/27 02:00:57;;;;;;;6.72;2.55;;;11.30;55.80;;;;;;4862947;29;20050;-72
2022/02/27 02:03:25;;;;;;;7.53;2.40;;;11.30;56.10;;;;;;4862827;29;20361;-72
2022/02/27 02:05:50;;;;;;;8.18;2.60;;;11.20;55.80;;;;;;4862845;29;20202;-71
2022/02/27 02:08:17;;;;;;;10.43;2.72;;;11.20;56.30;;;;;;4863069;29;20430;-72
2022/02/27 02:10:43;;;;;;;6.30;2.35;;;11.20;56.10;;;;;;4863103;29;20470;-71
2022/02/27 02:13:09;;;;;;;7.13;2.50;;;11.10;56.10;;;;;;4862780;29;20115;-72
2022/02/27 02:15:35;;;;;;;7.32;2.28;;;11.10;56.10;;;;;;4862755;29;20049;-71
2022/02/27 02:18:01;;;;;;;8.93;2.88;;;11.10;56.10;;;;;;4863016;29;20060;-72
2022/02/27 02:20:28;;;;;;;7.03;2.33;;;11.10;56.30;;;;;;4863120;29;20368;-71
2022/02/27 02:22:53;;;;;;;8.20;2.28;;;11.10;56.30;;;;;;4862082;29;20052;-72
2022/02/27 02:25:19;;;;;;;7.32;2.30;;;11.10;56.40;;;;;;4862830;29;20053;-71
2022/02/27 02:27:45;;;;;;;9.23;2.28;;;11.10;56.50;;;;;;4862691;29;20041;-72
2022/02/27 02:30:11;;;;;;;6.40;2.40;;;11.10;56.30;;;;;;4863105;29;20064;-71
2022/02/27 02:32:49;;;;;;;5.18;2.45;;;11.00;56.40;;;;;;4862393;29;20084;-71
2022/02/27 02:35:15;;;;;;;7.57;2.55;;;10.90;56.30;;;;;;4862728;29;20110;-71
2022/02/27 02:37:41;;;;;;;5.22;2.45;;;10.90;56.50;;;;;;4862381;29;20116;-72
2022/02/27 02:40:07;;;;;;;10.68;3.47;;;10.80;56.50;;;;;;4862724;29;20056;-72
2022/02/27 02:42:41;;;;;;;8.50;2.80;;;10.80;56.60;;;;;;4862421;29;20368;-72
2022/02/27 02:45:08;;;;;;;9.90;2.25;;;10.80;56.60;;;;;;4862406;29;20113;-72
2022/02/27 02:47:34;;;;;;;6.65;2.60;;;10.90;56.70;;;;;;4862475;29;20053;-72
2022/02/27 02:49:59;;;;;;;10.27;2.95;;;10.90;56.50;;;;;;4862592;29;20060;-72
2022/02/27 02:52:25;;;;;;;6.18;2.42;;;10.80;56.60;;;;;;4862443;29;20106;-71
2022/02/27 02:54:51;;;;;;;8.57;2.65;;;10.80;56.40;;;;;;4862440;29;20093;-71
2022/02/27 02:57:17;;;;;;;8.23;2.60;;;10.80;56.70;;;;;;4862375;29;20045;-72
2022/02/27 02:59:43;;;;;;;6.28;2.33;;;10.80;56.60;;;;;;4862077;29;20069;-71
2022/02/27 03:02:09;;;;;;;9.25;2.70;;;10.80;56.40;;;;;;4862669;29;20085;-72
2022/02/27 03:04:36;;;;;;;8.68;2.80;;;10.80;56.10;;;;;;4862136;29;20120;-72
2022/02/27 03:07:02;;;;;;;5.55;2.45;;;10.80;56.30;;;;;;4862404;29;20069;-71
2022/02/27 03:09:28;;;;;;;8.07;2.72;;;10.80;56.30;;;;;;4862316;29;20375;-71
2022/02/27 03:11:53;;;;;;;10.60;3.17;;;10.80;56.10;;;;;;4862703;29;20046;-71
2022/02/27 03:14:19;;;;;;;8.88;2.70;;;10.70;56.30;;;;;;4862071;29;20152;-71
2022/02/27 03:16:45;;;;;;;4.45;2.60;;;10.70;56.30;;;;;;4862663;29;20512;-71
2022/02/27 03:19:11;;;;;;;9.15;3.08;;;10.70;56.30;;;;;;4863001;29;20079;-71
2022/02/27 03:21:38;;;;;;;7.93;2.85;;;10.60;56.40;;;;;;4862220;29;20447;-72
2022/02/27 03:24:04;;;;;;;10.40;3.00;;;10.60;56.60;;;;;;4862224;29;20463;-71
2022/02/27 03:26:30;;;;;;;8.30;2.60;;;10.70;56.40;;;;;;4862115;29;20110;-71
2022/02/27 03:28:55;;;;;;;9.35;2.78;;;10.60;56.40;;;;;;4862267;29;20065;-71
2022/02/27 03:31:22;;;;;;;10.27;2.92;;;10.60;56.60;;;;;;4862555;29;20367;-72
2022/02/27 03:33:48;;;;;;;6.68;2.95;;;10.60;56.30;;;;;;4862129;29;20065;-72
2022/02/27 03:36:14;;;;;;;10.35;3.28;;;10.60;56.60;;;;;;4862851;29;20446;-72
2022/02/27 03:38:40;;;;;;;6.68;2.47;;;10.70;56.40;;;;;;4861914;29;20078;-72
2022/02/27 03:41:06;;;;;;;6.60;2.47;;;10.60;56.20;;;;;;4861622;29;20360;-71
2022/02/27 03:43:31;;;;;;;7.05;2.67;;;10.60;56.40;;;;;;4862607;29;20053;-72
2022/02/27 03:45:57;;;;;;;10.27;3.20;;;10.60;56.30;;;;;;4862110;29;20050;-72
2022/02/27 03:48:23;;;;;;;7.30;2.63;;;10.60;56.20;;;;;;4863253;29;20072;-72
2022/02/27 03:50:49;;;;;;;5.47;2.60;;;10.60;56.30;;;;;;4865641;29;20088;-72
2022/02/27 03:53:14;;;;;;;8.20;2.72;;;10.50;56.30;;;;;;4865503;29;20056;-72
2022/02/27 03:55:40;;;;;;;8.80;2.83;;;10.50;56.40;;;;;;4866106;29;20057;-71
2022/02/27 03:58:06;;;;;;;8.25;2.42;;;10.50;56.40;;;;;;4865750;29;20045;-72
2022/02/27 04:00:31;;;;;;;9.35;2.53;;;10.50;56.60;;;;;;4865561;29;20042;-72
2022/02/27 04:02:57;;;;;;;13.27;3.40;;;10.60;56.50;;;;;;4864851;29;20482;-71
2022/02/27 04:05:23;;;;;;;8.77;2.92;;;10.50;56.50;;;;;;4864530;29;20053;-72
2022/02/27 04:07:48;;;;;;;7.22;2.50;;;10.50;56.40;;;;;;4865086;29;20053;-71
2022/02/27 04:10:14;;;;;;;8.82;3.00;;;10.50;56.50;;;;;;4864853;29;20456;-72
2022/02/27 04:12:40;;;;;;;6.85;2.58;;;10.50;56.50;;;;;;4864745;29;20057;-71
2022/02/27 04:15:07;;;;;;;8.18;2.22;;;10.50;56.30;;;;;;4864949;29;20187;-72
2022/02/27 04:17:33;;;;;;;7.63;2.80;;;10.50;56.60;;;;;;4865256;29;20120;-72
2022/02/27 04:19:59;;;;;;;6.05;2.20;;;10.50;56.50;;;;;;4865116;29;20477;-72
2022/02/27 04:22:28;;;;;;;8.50;2.50;;;10.50;56.40;;;;;;4864807;29;20118;-72
2022/02/27 04:24:54;;;;;;;5.30;2.40;;;10.50;56.40;;;;;;4864627;29;20050;-71
2022/02/27 04:27:20;;;;;;;10.85;2.65;;;10.50;56.20;;;;;;4864564;29;20065;-72
2022/02/27 04:29:46;;;;;;;7.18;2.55;;;10.50;56.30;;;;;;4864563;29;20474;-72
2022/02/27 04:32:12;;;;;;;6.57;2.17;;;10.40;56.30;;;;;;4864892;29;20054;-72
2022/02/27 04:34:38;;;;;;;10.05;2.25;;;10.40;56.20;;;;;;4864995;29;20128;-71
2022/02/27 04:37:04;;;;;;;9.13;2.67;;;10.40;56.50;;;;;;4863856;29;20133;-71
2022/02/27 04:39:29;;;;;;;8.02;2.78;;;10.30;56.30;;;;;;4864246;29;20053;-71
2022/02/27 04:41:55;;;;;;;7.15;2.17;;;10.40;56.50;;;;;;4864930;29;20054;-71
2022/02/27 04:44:21;;;;;;;8.85;2.55;;;10.30;56.50;;;;;;4864521;29;20057;-71
2022/02/27 04:46:47;;;;;;;10.20;2.83;;;10.40;56.40;;;;;;4864571;29;20126;-72
2022/02/27 04:49:13;;;;;;;7.68;2.13;;;10.40;56.50;;;;;;4864669;29;20050;-72
2022/02/27 04:51:39;;;;;;;9.32;2.55;;;10.30;56.10;;;;;;4864489;29;20064;-71
2022/02/27 04:54:05;;;;;;;4.10;1.92;;;10.30;56.20;;;;;;4864387;29;20508;-71
2022/02/27 04:56:31;;;;;;;10.00;2.78;;;10.30;56.40;;;;;;4863993;29;20057;-72
2022/02/27 04:58:56;;;;;;;7.63;2.92;;;10.30;56.50;;;;;;4864300;29;20058;-71
2022/02/27 05:01:22;;;;;;;9.23;2.63;;;10.20;56.40;;;;;;4863373;29;20363;-71
2022/02/27 05:03:48;;;;;;;8.73;2.47;;;10.20;56.70;;;;;;4864038;29;20057;-71
2022/02/27 05:06:14;;;;;;;9.32;2.72;;;10.10;56.70;;;;;;4863821;29;20065;-71
2022/02/27 05:08:40;;;;;;;12.95;2.67;;;10.10;56.60;;;;;;4863590;29;20498;-71
2022/02/27 05:11:06;;;;;;;8.10;2.90;;;10.10;56.40;;;;;;4864694;29;20041;-71
2022/02/27 05:13:32;;;;;;;9.38;2.45;;;10.10;56.70;;;;;;4863868;29;20053;-72
2022/02/27 05:15:58;;;;;;;9.27;2.92;;;10.20;56.70;;;;;;4864132;29;20367;-71
2022/02/27 05:18:23;;;;;;;7.75;2.33;;;10.10;56.60;;;;;;4863919;29;20045;-72
2022/02/27 05:20:49;;;;;;;7.03;2.08;;;10.20;56.60;;;;;;4863374;29;20057;-71
2022/02/27 05:23:15;;;;;;;6.55;2.50;;;10.20;56.70;;;;;;4863588;29;20380;-72
2022/02/27 05:25:41;;;;;;;7.22;2.33;;;10.20;56.50;;;;;;4862680;29;20053;-71
2022/02/27 05:28:06;;;;;;;7.55;2.70;;;10.20;56.40;;;;;;4862864;29;20451;-71
2022/02/27 05:30:33;;;;;;;7.47;2.42;;;10.20;56.50;;;;;;4849961;29;20057;-71
2022/02/27 05:32:58;;;;;;;9.23;3.33;;;10.20;56.50;;;;;;4845865;29;20126;-71
2022/02/27 05:35:24;;;;;;;22.30;3.75;;;10.20;56.80;;;;;;4861787;29;20451;-74
2022/02/27 05:37:50;;;;;;;10.88;3.58;;;10.30;57.30;;;;;;4863579;29;20091;-76
2022/02/27 05:40:16;;;;;;;10.13;3.40;;;10.60;57.00;;;;;;4863493;29;20098;-75
2022/02/27 05:42:41;;;;;;;7.00;2.80;;;10.80;54.80;;;;;;4863584;29;20053;-76
2022/02/27 05:45:08;;;;;;;11.40;3.08;;;10.90;53.20;;;;;;4863759;29;20101;-75
2022/02/27 05:47:34;;;;;;;13.48;3.28;;;10.90;52.00;;;;;;4863487;29;20177;-75
2022/02/27 05:50:00;;;;;;;11.25;3.33;;;10.90;51.20;;;;;;4863391;29;20101;-74
2022/02/27 05:52:26;;;;;;;9.25;3.28;;;10.90;50.90;;;;;;4863298;29;20060;-75
2022/02/27 05:54:51;;;;;;;8.18;3.42;;;10.80;50.80;;;;;;4863187;29;20053;-75
2022/02/27 05:57:17;;;;;;;11.10;3.20;;;10.70;50.40;;;;;;4863149;29;20501;-74
2022/02/27 05:59:43;;;;;;;11.45;3.67;;;10.70;50.70;;;;;;4863435;29;20058;-75
2022/02/27 06:02:08;;;;;;;6.72;2.63;;;10.70;51.00;;;;;;4863217;29;20060;-75
2022/02/27 06:04:34;;;;;;;11.32;3.30;;;10.70;51.40;;;;;;4863022;29;20065;-75
2022/02/27 06:07:00;;;;;;;46.25;6.88;;;10.80;51.60;;;;;;4862962;29;20460;-78
2022/02/27 06:09:26;;;;;;;17.52;3.75;;;11.00;51.50;;;;;;4863355;29;20132;-76
2022/02/27 06:11:53;;;;;;;12.50;3.42;;;11.10;51.20;;;;;;4862633;29;20053;-73
2022/02/27 06:14:20;;;;;;;12.77;3.35;;;11.20;51.00;;;;;;4862961;29;20121;-76
2022/02/27 06:16:46;;;;;;;15.15;3.33;;;11.20;51.00;;;;;;4863182;29;20057;-74
2022/02/27 06:19:12;;;;;;;17.20;3.50;;;11.20;51.20;;;;;;4862775;29;20061;-78
2022/02/27 06:21:38;;;;;;;13.45;3.60;;;11.30;51.30;;;;;;4863057;29;20053;-73
2022/02/27 06:24:04;;;;;;;12.38;3.40;;;11.40;52.00;;;;;;4858003;29;20084;-76
2022/02/27 06:26:32;;;;;;;13.88;3.20;;;11.30;52.80;;;;;;4831667;29;20479;-76
2022/02/27 06:28:58;;;;;;;13.13;3.05;;;11.50;52.90;;;;;;4843115;29;20089;-81
2022/02/27 06:31:24;;;;;;;9.38;2.70;;;11.90;52.80;;;;;;4843240;29;20094;-71
2022/02/27 06:33:49;;;;;;;16.20;2.53;;;12.20;52.70;;;;;;4843494;29;20050;-75
2022/02/27 06:36:15;;;;;;;11.52;3.40;;;12.50;52.40;;;;;;4844261;29;20046;-71
2022/02/27 06:38:41;;;;;;;10.93;2.70;;;12.70;52.70;;;;;;4844350;29;20042;-77
2022/02/27 06:41:07;;;;;;;13.50;2.75;;;13.00;53.40;;;;;;4847557;29;20468;-71
2022/02/27 06:43:33;;;;;;;8.73;2.63;;;13.20;53.50;;;;;;4861714;29;20061;-77
2022/02/27 06:46:02;;;;;;;9.32;2.38;;;13.40;53.60;;;;;;4862174;29;20046;-74
2022/02/27 06:48:28;;;;;;;10.43;2.33;;;13.60;53.70;;;;;;4862373;29;20416;-75
2022/02/27 06:50:57;;;;;;;11.90;2.67;;;13.80;54.00;;;;;;4862494;29;20060;-73
2022/02/27 06:53:23;;;;;;;8.27;2.63;;;13.90;54.50;;;;;;4861993;29;20528;-73
2022/02/27 06:55:50;;;;;;;13.77;2.40;;;14.10;54.50;;;;;;4862843;29;20141;-73
2022/02/27 06:58:16;;;;;;;12.18;2.83;;;14.20;54.50;;;;;;4862466;29;20056;-75
2022/02/27 07:00:42;;;;;;;12.45;2.40;;;14.40;54.80;;;;;;4846771;29;20436;-75
2022/02/27 07:03:09;;;;;;;8.60;2.20;;;14.50;55.10;;;;;;4861431;29;20092;-75
2022/02/27 07:05:34;;;;;;;6.13;2.05;;;14.10;52.80;;;;;;4861496;29;20132;-75
2022/02/27 07:08:00;;;;;;;9.77;2.35;;;14.40;55.80;;;;;;4861831;29;20412;-75
2022/02/27 07:10:26;;;;;;;10.63;2.58;;;14.50;55.80;;;;;;4861811;29;20038;-82
2022/02/27 07:12:52;;;;;;;12.07;2.65;;;14.60;56.30;;;;;;4860370;29;20056;-79
2022/02/27 07:15:18;;;;;;;15.77;2.83;;;14.70;56.50;;;;;;4861744;29;20467;-75
2022/02/27 07:17:44;;;;;;;13.30;2.60;;;14.90;56.50;;;;;;4854830;29;20071;-80
2022/02/27 07:20:10;;;;;;;10.15;2.50;;;15.00;56.20;;;;;;4845667;29;20136;-75
2022/02/27 07:22:37;;;;;;;17.52;2.33;;;15.10;56.30;;;;;;4860934;29;20063;-77
2022/02/27 07:25:07;;;;;;;15.02;2.80;;;15.20;54.80;;;;;;4864596;29;20061;-76
2022/02/27 07:27:34;;;;;;;12.27;2.83;;;15.20;56.60;;;;;;4865790;29;20076;-77
2022/02/27 07:30:01;;;;;;;13.38;2.80;;;15.20;57.50;;;;;;4865489;29;20059;-78
2022/02/27 07:32:27;;;;;;;12.85;2.53;;;15.30;56.80;;;;;;4864845;29;20132;-80
2022/02/27 07:34:53;;;;;;;15.45;2.70;;;15.40;57.10;;;;;;4865114;29;20129;-79
2022/02/27 07:37:19;;;;;;;8.63;1.90;;;15.40;57.20;;;;;;4850047;29;20458;-78
2022/02/27 07:39:44;;;;;;;11.43;2.33;;;15.50;56.90;;;;;;4864325;29;20059;-81
2022/02/27 07:42:10;;;;;;;11.93;2.28;;;15.60;57.20;;;;;;4864872;29;20132;-82
2022/02/27 07:44:36;;;;;;;8.52;2.20;;;15.60;57.40;;;;;;4849279;29;20045;-82
2022/02/27 07:47:02;;;;;;;11.57;2.53;;;15.70;57.40;;;;;;4849271;29;20546;-82
2022/02/27 07:49:28;;;;;;;8.95;2.08;;;15.70;57.50;;;;;;4848832;29;20055;-80
2022/02/27 07:51:54;;;;;;;14.00;2.40;;;15.80;57.40;;;;;;4848559;29;20045;-81
2022/02/27 07:54:20;;;;;;;10.15;2.80;;;15.80;56.60;;;;;;4849398;29;20079;-78
2022/02/27 07:56:47;;;;;;;7.95;2.08;;;15.80;57.00;;;;;;4864441;29;20049;-80
2022/02/27 07:59:13;;;;;;;6.68;2.40;;;15.90;56.50;;;;;;4864369;29;20446;-81
2022/02/27 08:01:39;;;;;;;5.43;1.80;;;15.90;56.40;;;;;;4848752;29;20049;-80
2022/02/27 08:04:04;;;;;;;10.75;2.22;;;16.00;56.20;;;;;;4849049;29;20037;-81
2022/02/27 08:06:32;;;;;;;18.67;2.30;;;16.10;56.60;;;;;;4864352;29;20133;-82
2022/02/27 08:09:01;;;;;;;7.25;1.88;;;16.10;56.80;;;;;;4848539;29;20503;-82
2022/02/27 08:11:28;;;;;;;7.25;1.95;;;16.10;56.60;;;;;;4848141;29;20037;-87
2022/02/27 08:13:54;;;;;;;9.10;2.08;;;16.20;56.60;;;;;;4846577;29;20118;-82
2022/02/27 08:16:22;;;;;;;9.60;2.55;;;16.20;56.80;;;;;;4864955;29;20041;-84
2022/02/27 08:18:51;;;;;;;9.27;2.63;;;16.20;55.60;;;;;;4864614;29;20069;-84
2022/02/27 08:21:23;;;;;;;11.52;3.00;;;16.10;49.70;;;;;;4845307;29;20038;-87
2022/02/27 08:23:49;;;;;;;9.38;2.78;;;16.10;54.40;;;;;;4841451;29;20182;-80
2022/02/27 08:26:24;;;;;;;7.07;2.03;;;16.20;54.40;;;;;;4861650;29;20116;-84
2022/02/27 08:28:59;;;;;;;11.88;2.20;;;16.30;54.80;;;;;;4843938;29;20062;-81
2022/02/27 08:31:50;;;;;;;9.77;2.38;;;16.40;55.10;;;;;;4848751;29;20053;-85
2022/02/27 08:34:29;;;;;;;14.20;2.40;;;16.40;54.90;;;;;;4850878;29;20050;-85
2022/02/27 08:36:57;;;;;;;10.90;2.30;;;16.60;54.80;;;;;;4849000;29;20041;-80
2022/02/27 08:39:26;;;;;;;13.02;2.17;;;16.50;53.70;;;;;;4863252;29;20179;-84
2022/02/27 08:41:54;;;;;;;12.35;1.95;;;16.60;54.50;;;;;;4847944;29;20054;-83
2022/02/27 08:44:22;;;;;;;12.07;2.63;;;16.70;54.50;;;;;;4848011;29;20049;-85
2022/02/27 08:46:58;;;;;;;15.05;2.25;;;16.80;54.10;;;;;;4848180;29;20132;-84
2022/02/27 08:49:30;;;;;;;8.23;1.85;;;16.80;53.70;;;;;;4863474;29;20478;-86
2022/02/27 08:52:49;;;;;;;6.63;1.60;;;16.90;53.90;;;;;;4848487;29;20034;-86
2022/02/27 08:55:16;;;;;;;10.35;2.38;;;16.80;53.20;;;;;;4839971;29;20056;-84
2022/02/27 08:57:43;;;;;;;10.65;2.53;;;16.80;53.50;;;;;;4862976;29;20113;-78
2022/02/27 09:00:11;;;;;;;11.55;2.42;;;16.60;52.60;;;;;;4864216;29;20486;-84
2022/02/27 09:02:38;;;;;;;10.57;2.10;;;16.70;53.30;;;;;;4863175;29;20546;-84
2022/02/27 09:05:05;;;;;;;10.65;2.33;;;16.80;53.50;;;;;;4847587;29;20056;-73
2022/02/27 09:07:34;;;;;;;9.63;1.75;;;16.80;53.80;;;;;;4863432;29;20057;-86
2022/02/27 09:10:03;;;;;;;13.05;2.83;;;16.90;53.70;;;;;;4860851;29;20136;-86
2022/02/27 09:12:32;;;;;;;8.82;2.03;;;16.90;53.70;;;;;;4848010;29;20163;-83
2022/02/27 09:14:58;;;;;;;12.75;2.00;;;16.60;52.70;;;;;;4832651;29;20556;-83
2022/02/27 09:17:24;;;;;;;7.82;2.10;;;16.70;53.90;;;;;;4861757;29;20080;-79
2022/02/27 09:19:50;;;;;;;10.65;2.13;;;16.70;53.90;;;;;;4861434;29;20092;-79
2022/02/27 09:22:16;;;;;;;15.25;2.97;;;16.80;53.90;;;;;;4861136;29;20360;-79
2022/02/27 09:24:42;;;;;;;9.07;2.28;;;16.80;53.70;;;;;;4844710;29;20046;-80
2022/02/27 09:27:08;;;;;;;9.30;2.00;;;16.80;53.60;;;;;;4845196;29;20117;-81
2022/02/27 09:29:33;;;;;;;12.48;2.05;;;16.80;53.80;;;;;;4861200;29;20124;-80
2022/02/27 09:31:59;;;;;;;9.15;1.73;;;16.80;53.80;;;;;;4863276;29;20060;-80
2022/02/27 09:34:25;;;;;;;9.57;1.60;;;16.80;53.90;;;;;;4862662;29;20049;-79
2022/02/27 09:36:51;;;;;;;15.30;2.42;;;16.70;54.20;;;;;;4862965;29;20096;-81
2022/02/27 09:39:17;;;;;;;11.90;1.98;;;16.70;54.10;;;;;;4863773;29;20128;-81
2022/02/27 09:41:45;;;;;;;9.98;2.42;;;16.60;54.20;;;;;;4862919;29;20437;-81
2022/02/27 09:44:12;;;;;;;6.57;1.90;;;16.60;54.60;;;;;;4863211;29;20375;-80
2022/02/27 09:46:38;;;;;;;8.40;2.10;;;16.50;54.60;;;;;;4862173;29;20139;-81
2022/02/27 09:49:05;;;;;;;12.20;2.47;;;16.50;55.30;;;;;;4846914;29;20147;-80
2022/02/27 09:51:37;;;;;;;8.52;1.90;;;16.50;54.40;;;;;;4863385;29;20057;-82
2022/02/27 09:54:27;;;;;;;9.43;2.28;;;16.50;54.70;;;;;;4852529;29;20065;-87
2022/02/27 09:56:58;;;;;;;8.40;2.15;;;16.40;54.70;;;;;;4777546;29;20059;-83
2022/02/27 09:59:38;;;;;;;10.32;2.40;;;16.40;54.60;;;;;;4825083;29;20380;-85
2022/02/27 10:02:05;;;;;;;11.50;2.75;;;16.40;53.80;;;;;;4843181;29;20081;-85
2022/02/27 10:04:37;;;;;;;11.95;2.75;;;15.60;47.00;;;;;;4826687;29;20491;-82
2022/02/27 10:07:14;;;;;;;8.48;2.17;;;15.00;52.00;;;;;;4828261;29;20064;-83
2022/02/27 10:09:41;;;;;;;9.20;2.20;;;15.30;54.40;;;;;;4828598;29;20089;-82
2022/02/27 10:12:16;;;;;;;9.23;1.92;;;15.50;54.40;;;;;;4843489;29;20464;-83
2022/02/27 10:15:10;;;;;;;6.43;1.50;;;15.70;54.30;;;;;;4828593;29;20077;-83
2022/02/27 10:17:38;;;;;;;5.65;1.60;;;15.80;54.10;;;;;;4828312;29;20075;-83
2022/02/27 10:20:08;;;;;;;5.38;1.58;;;16.00;53.90;;;;;;4855669;29;20029;-84
2022/02/27 10:22:36;;;;;;;7.97;1.63;;;16.10;53.70;;;;;;4861456;29;20049;-83
2022/02/27 10:25:08;;;;;;;7.60;1.90;;;16.20;53.60;;;;;;4846591;29;20045;-84
2022/02/27 10:27:55;;;;;;;6.35;1.70;;;16.30;53.60;;;;;;4858693;29;20141;-84
2022/02/27 10:30:38;;;;;;;6.90;1.90;;;16.30;53.40;;;;;;4843019;29;20501;-86
2022/02/27 10:33:04;;;;;;;16.63;2.58;;;16.40;51.50;;;;;;4828643;29;20050;-85
2022/02/27 10:35:50;;;;;;;8.65;2.03;;;16.00;50.50;;;;;;4861291;29;20129;-84
2022/02/27 10:45:42;;;;;;;9.13;2.38;;;14.20;55.00;;;;;;4862149;29;20125;-85
2022/02/27 11:07:58;;;;;;;;;;;;;;;;;;;;;
2022/02/27 11:14:52;;;;;;;;;;;;;;;;;;;;;
2022/02/27 11:18:04;;;;;;;6.68;1.55;;;13.40;58.90;;;;;;4804336;29;20074;-84
2022/02/27 11:24:58;;;;;;;3.03;0.90;;;13.40;58.80;;;;;;4878883;29;20049;-83
2022/02/27 11:42:15;;;;;;;4.88;1.42;;;13.40;59.30;;;;;;4865308;29;20060;-85
2022/02/27 11:44:59;;;;;;;;;;;;;;;;;;;;;
2022/02/27 11:48:03;;;;;;;4.00;1.50;;;13.40;59.50;;;;;;4864608;29;20496;-83
2022/02/27 11:50:46;;;;;;;;;;;;;;;;;;;;;
2022/02/27 11:53:42;;;;;;;3.80;1.15;;;13.30;59.80;;;;;;4863569;29;20061;-85
2022/02/27 11:56:18;;;;;;;4.47;1.52;;;13.30;59.80;;;;;;4845505;29;20057;-85
2022/02/27 11:59:16;;;;;;;2.90;1.10;;;13.40;59.80;;;;;;4850052;29;20041;-85
2022/02/27 12:01:54;;;;;;;3.92;1.50;;;13.40;59.90;;;;;;4846809;29;20049;-85
2022/02/27 12:04:54;;;;;;;3.45;1.00;;;13.30;59.80;;;;;;4849780;29;20470;-84
2022/02/27 12:07:30;;;;;;;3.42;1.30;;;13.30;59.90;;;;;;4848448;29;20104;-83
2022/02/27 12:10:08;;;;;;;3.33;1.60;;;13.40;60.00;;;;;;4848664;29;20157;-85
2022/02/27 12:12:51;;;;;;;4.60;1.55;;;13.40;60.00;;;;;;4848900;29;20060;-85
2022/02/27 12:15:43;;;;;;;2.55;1.23;;;13.40;59.80;;;;;;4848927;29;20073;-85
2022/02/27 12:18:51;;;;;;;3.45;1.17;;;13.40;59.80;;;;;;4864026;29;20053;-85
2022/02/27 12:21:52;;;;;;;3.15;1.17;;;13.40;59.80;;;;;;4863220;29;20148;-85
2022/02/27 12:24:31;;;;;;;2.67;1.02;;;13.40;59.90;;;;;;4848465;29;20530;-87
2022/02/27 12:28:04;;;;;;;3.83;1.02;;;13.30;59.90;;;;;;4845470;29;20042;-83
2022/02/27 12:30:44;;;;;;;;;;;;;;;;;;;;;
2022/02/27 12:33:26;;;;;;;3.83;1.08;;;13.40;60.00;;;;;;4846057;29;20054;-84
2022/02/27 12:36:03;;;;;;;2.45;1.10;;;13.40;59.90;;;;;;4795856;29;20046;-84
2022/02/27 12:38:36;;;;;;;4.30;1.42;;;13.40;60.00;;;;;;4809313;29;20476;-86
2022/02/27 12:41:06;;;;;;;4.05;1.48;;;13.40;60.00;;;;;;4812841;29;20511;-83
2022/02/27 12:43:49;;;;;;;3.88;1.00;;;13.40;60.00;;;;;;4813971;29;20506;-83
2022/02/27 12:46:29;;;;;;;2.83;1.10;;;13.40;60.10;;;;;;4815389;29;20138;-86
2022/02/27 12:52:28;;;;;;;2.58;0.90;;;13.50;60.10;;;;;;4843833;29;20057;-84
2022/02/27 12:55:21;;;;;;;3.35;0.90;;;13.40;60.10;;;;;;4814591;29;20137;-85
2022/02/27 12:58:02;;;;;;;2.33;1.00;;;13.40;60.10;;;;;;4813906;29;20113;-85
2022/02/27 13:00:33;;;;;;;3.90;1.40;;;13.40;60.10;;;;;;4814515;29;20143;-83
2022/02/27 13:03:32;;;;;;;3.47;1.45;;;13.40;60.10;;;;;;4828973;29;20133;-82
2022/02/27 13:06:16;;;;;;;3.05;1.00;;;13.50;60.10;;;;;;4818745;29;20053;-84
2022/02/27 13:09:04;;;;;;;2.85;0.82;;;13.50;60.10;;;;;;4862455;29;20450;-86
2022/02/27 13:12:27;;;;;;;2.78;1.05;;;13.50;60.10;;;;;;4848212;29;20065;-84
2022/02/27 13:15:05;;;;;;;1.92;0.90;;;13.50;60.10;;;;;;4823512;29;20059;-85
2022/02/27 13:17:40;;;;;;;1.85;1.10;;;13.50;60.10;;;;;;4847789;29;20436;-86
2022/02/27 13:20:35;;;;;;;2.75;1.00;;;13.50;60.10;;;;;;4848259;29;20084;-84
2022/02/27 13:23:06;;;;;;;3.00;1.00;;;13.40;60.10;;;;;;4828671;29;20041;-85
2022/02/27 13:26:11;;;;;;;2.83;0.90;;;13.40;60.10;;;;;;4845960;29;20468;-85
2022/02/27 13:28:56;;;;;;;2.08;1.05;;;13.50;60.20;;;;;;4848100;29;20050;-84
2022/02/27 13:31:40;;;;;;;2.22;0.88;;;13.50;60.30;;;;;;4847857;29;20165;-86
2022/02/27 13:34:14;;;;;;;2.35;1.05;;;13.50;60.20;;;;;;4862190;29;20140;-86
2022/02/27 13:40:03;;;;;;;3.17;0.93;;;13.50;60.30;;;;;;4834627;29;20128;-84
2022/02/27 13:46:40;;;;;;;;;;;;;;;;;;;;;
2022/02/27 13:53:16;;;;;;;2.10;1.20;;;13.60;60.50;;;;;;4791339;29;20041;-85
2022/02/27 13:56:20;;;;;;;2.87;1.07;;;13.60;60.50;;;;;;4828553;29;20365;-86
2022/02/27 13:59:37;;;;;;;2.53;1.20;;;13.60;60.50;;;;;;4782307;29;20052;-85
2022/02/27 14:02:45;;;;;;;2.03;1.00;;;13.60;60.50;;;;;;4830005;29;20054;-86
2022/02/27 14:05:36;;;;;;;;;;;;;;;;;;;;;
2022/02/27 14:08:18;;;;;;;2.22;0.98;;;13.60;60.50;;;;;;4841143;29;20140;-85
2022/02/27 14:11:12;;;;;;;1.55;0.90;;;13.60;60.50;;;;;;4828686;29;20054;-83
2022/02/27 14:17:47;;;;;;;3.10;0.77;;;13.70;60.60;;;;;;4803626;29;20051;-84